Search for airport 
image banner adimage banner adimage banner ad
image banner ad

N15 - Kingston

Located in Kingston, United States

ICAO - N15, IATA -

Data provided by Airmate  

General information

Coordinates: N39°12'10" W117°4'8"
Elevation is 6075 feet MSL.
Magnetic variation is 15° East
View others Airports in Nevada

Operational data

Special qualification required
Current time UTC:
Current local time:
Weather at : KTMT - Austin ( 31 km )
METAR: KTMT 092315Z AUTO 31006G14KT 10SM SCT100 19/M08 A2998 RMK AO2 T01861077
View NOTAMs / SUP AIP / TFR affecting this airport [VIEW]
Communications frequencies: [VIEW]

Runways:

RWY identifierQFULength (ft)Width (ft)SurfaceLDA (ft)
0790°370080OTHER
25270°370080OTHER
16183°307260OTHER
34307260OTHER

Airport contact information

Address: Kingston United States

Satellite view of N15